createdAt,value
2023-02-24T00:04:52.961Z,32.70
2023-02-24T00:09:56.335Z,34.30
2023-02-24T00:14:59.464Z,32.87
2023-02-24T00:20:02.576Z,32.40
2023-02-24T00:25:06.570Z,35.07
2023-02-24T00:30:12.472Z,34.77
2023-02-24T00:35:15.678Z,35.37
2023-02-24T00:40:23.626Z,34.43
2023-02-24T00:45:34.133Z,33.47
2023-02-24T00:50:39.353Z,32.60
2023-02-24T00:55:42.391Z,34.17
2023-02-24T01:00:47.877Z,33.20
2023-02-24T01:05:51.063Z,31.63
2023-02-24T01:11:19.923Z,32.13
2023-02-24T01:16:23.623Z,31.07
2023-02-24T01:21:27.180Z,32.03
2023-02-24T01:26:31.462Z,30.83
2023-02-24T01:31:35.099Z,28.90
2023-02-24T01:36:41.718Z,28.83
2023-02-24T01:41:47.716Z,27.70
2023-02-24T01:46:54.041Z,26.20
2023-02-24T01:52:12.386Z,24.70
2023-02-24T01:57:20.156Z,24.00
2023-02-24T02:02:24.113Z,24.90
2023-02-24T02:07:29.938Z,23.83
2023-02-24T02:12:37.622Z,23.20
2023-02-24T02:18:05.229Z,24.87
2023-02-24T02:23:46.165Z,23.70
2023-02-24T02:29:16.804Z,23.30
2023-02-24T02:34:26.260Z,23.33
2023-02-24T02:39:59.140Z,23.27
2023-02-24T02:45:08.594Z,21.87
2023-02-24T02:50:46.314Z,20.03
2023-02-24T02:56:07.361Z,21.20
2023-02-24T03:01:12.905Z,20.67
2023-02-24T03:06:29.207Z,21.63
2023-02-24T03:11:34.029Z,20.63
2023-02-24T03:16:37.586Z,20.73
2023-02-24T03:21:47.127Z,20.20
2023-02-24T03:26:53.693Z,21.50
2023-02-24T03:32:05.169Z,19.07
2023-02-24T03:37:10.930Z,18.87
2023-02-24T03:42:21.247Z,18.77
2023-02-24T03:47:25.958Z,17.93
2023-02-24T03:52:50.748Z,18.90
2023-02-24T03:58:15.904Z,17.93
2023-02-24T04:03:41.370Z,19.30
2023-02-24T04:09:02.148Z,21.40
2023-02-24T04:14:43.815Z,19.07
2023-02-24T04:19:51.040Z,20.87
2023-02-24T04:25:00.115Z,20.97
2023-02-24T04:30:05.249Z,19.93
2023-02-24T04:35:12.618Z,18.67
2023-02-24T04:40:18.753Z,18.53
2023-02-24T04:45:32.598Z,19.00
2023-02-24T04:50:38.870Z,18.27
2023-02-24T04:55:44.480Z,17.93
2023-02-24T05:00:49.220Z,18.37
2023-02-24T05:05:58.550Z,17.63
2023-02-24T05:11:04.210Z,17.20
2023-02-24T05:16:09.502Z,17.40
2023-02-24T05:21:33.768Z,18.23
2023-02-24T05:26:41.995Z,17.50
2023-02-24T05:31:46.142Z,16.97
2023-02-24T05:36:50.019Z,16.40
2023-02-24T05:41:55.108Z,17.30
2023-02-24T05:46:59.573Z,15.93
2023-02-24T05:52:09.201Z,17.97
2023-02-24T05:57:15.829Z,17.93
2023-02-24T06:02:28.107Z,15.80
2023-02-24T06:07:34.920Z,18.10
2023-02-24T06:12:40.227Z,17.43
2023-02-24T06:17:45.556Z,16.83
2023-02-24T06:22:49.077Z,18.13
2023-02-24T06:27:56.150Z,17.67
2023-02-24T06:32:59.781Z,16.93
2023-02-24T06:38:03.108Z,17.60
2023-02-24T06:43:06.247Z,17.93
2023-02-24T06:48:09.742Z,16.43
2023-02-24T06:53:17.188Z,16.67
2023-02-24T06:58:20.929Z,8.30
2023-02-24T07:03:39.528Z,6.90
2023-02-24T07:08:44.482Z,6.77
2023-02-24T07:13:48.862Z,6.20
2023-02-24T07:19:10.162Z,5.10
2023-02-24T07:24:20.685Z,4.87
2023-02-24T07:29:25.521Z,2.47
2023-02-24T07:34:29.067Z,3.00
2023-02-24T07:39:32.810Z,2.30
2023-02-24T07:44:35.949Z,3.13
2023-02-24T07:49:41.316Z,2.97
2023-02-24T07:54:45.246Z,2.63
2023-02-24T07:59:48.582Z,3.60
2023-02-24T08:04:51.839Z,3.17
2023-02-24T08:10:12.806Z,10.43
2023-02-24T08:15:24.917Z,3.37
2023-02-24T08:20:36.547Z,3.57
2023-02-24T08:25:44.849Z,2.90
2023-02-24T08:30:48.001Z,3.50
2023-02-24T08:35:58.546Z,3.43
2023-02-24T08:41:05.274Z,4.80
2023-02-24T08:46:18.719Z,4.07
2023-02-24T08:51:35.257Z,4.90
2023-02-24T08:56:44.157Z,3.80
2023-02-24T09:02:04.205Z,5.43
2023-02-24T09:07:15.694Z,3.53
2023-02-24T09:12:29.355Z,4.27
2023-02-24T09:17:45.924Z,3.37
2023-02-24T09:23:13.194Z,4.27
2023-02-24T09:28:19.700Z,2.80
2023-02-24T09:33:42.037Z,4.07
2023-02-24T09:39:00.148Z,4.53
2023-02-24T09:44:20.109Z,4.90
2023-02-24T09:49:46.890Z,4.53
2023-02-24T09:55:12.424Z,3.90
2023-02-24T10:00:33.891Z,3.37
2023-02-24T10:06:01.427Z,3.77
2023-02-24T10:11:08.832Z,3.30
2023-02-24T10:16:16.429Z,3.00
2023-02-24T10:21:48.644Z,3.23
2023-02-24T10:27:08.322Z,4.27
2023-02-24T10:32:34.214Z,3.60
2023-02-24T10:37:37.596Z,3.57
2023-02-24T10:42:50.595Z,3.13
2023-02-24T10:47:59.225Z,2.83
2023-02-24T10:53:11.669Z,3.03
2023-02-24T10:58:54.022Z,2.67
2023-02-24T11:04:23.066Z,2.50
2023-02-24T11:09:30.334Z,2.90
2023-02-24T11:15:07.494Z,3.03
2023-02-24T11:20:42.335Z,2.50
2023-02-24T11:25:58.980Z,3.10
2023-02-24T11:31:23.522Z,2.20
2023-02-24T11:37:09.603Z,2.40
2023-02-24T11:42:19.871Z,2.17
2023-02-24T11:47:37.175Z,2.10
2023-02-24T11:52:47.384Z,2.70
2023-02-24T11:57:55.383Z,2.50
2023-02-24T12:03:13.490Z,2.30
2023-02-24T12:08:30.298Z,2.40
2023-02-24T12:13:49.220Z,3.00
2023-02-24T12:19:15.436Z,3.90
2023-02-24T12:24:19.794Z,3.87
2023-02-24T12:29:49.458Z,3.47
2023-02-24T12:35:11.110Z,3.47
2023-02-24T12:40:39.893Z,4.00
2023-02-24T12:46:19.149Z,3.03
2023-02-24T12:51:35.076Z,3.93
2023-02-24T12:56:51.026Z,3.00
2023-02-24T13:02:06.988Z,2.83
2023-02-24T13:07:29.055Z,2.63
2023-02-24T13:12:44.365Z,2.93
2023-02-24T13:17:51.878Z,3.67
2023-02-24T13:22:55.675Z,3.10
2023-02-24T13:28:21.789Z,3.10
2023-02-24T13:33:36.128Z,2.67
2023-02-24T13:39:06.238Z,2.93
2023-02-24T13:44:25.029Z,2.67
2023-02-24T13:50:13.671Z,2.70
2023-02-24T13:55:29.870Z,2.30
2023-02-24T14:00:57.895Z,2.83
2023-02-24T14:06:02.480Z,1.90
2023-02-24T14:11:10.646Z,2.50
2023-02-24T14:16:21.977Z,1.90
2023-02-24T14:21:31.715Z,2.40
2023-02-24T14:26:44.253Z,2.07
2023-02-24T14:31:50.674Z,2.30
2023-02-24T14:37:00.823Z,2.67
2023-02-24T14:42:12.931Z,1.63
2023-02-24T14:47:21.295Z,2.00
2023-02-24T14:52:58.237Z,2.17
2023-02-24T14:58:13.037Z,2.47
2023-02-24T15:03:40.040Z,1.97
2023-02-24T15:08:49.034Z,2.60
2023-02-24T15:14:14.725Z,2.80
2023-02-24T15:19:47.297Z,2.50
2023-02-24T15:24:52.951Z,2.70
2023-02-24T15:30:07.973Z,2.57
2023-02-24T15:35:25.090Z,2.97
2023-02-24T15:40:32.233Z,2.97
2023-02-24T15:45:40.413Z,2.80
2023-02-24T15:50:44.116Z,2.67
2023-02-24T15:55:47.441Z,2.57
2023-02-24T16:00:52.933Z,2.73
2023-02-24T16:05:57.096Z,2.30
2023-02-24T16:11:01.593Z,2.70
2023-02-24T16:16:07.176Z,2.60
2023-02-24T16:21:11.088Z,2.97
2023-02-24T16:26:19.551Z,2.60
2023-02-24T16:31:27.126Z,2.80
2023-02-24T16:36:31.748Z,3.07
2023-02-24T16:41:35.605Z,3.27
2023-02-24T16:46:44.028Z,3.13
2023-02-24T16:51:47.708Z,3.30
2023-02-24T16:56:51.569Z,3.20
2023-02-24T17:01:57.339Z,3.00
2023-02-24T17:07:01.774Z,4.03
2023-02-24T17:12:06.312Z,5.63
2023-02-24T17:17:11.317Z,9.23
2023-02-24T17:22:16.164Z,11.00
2023-02-24T17:27:19.772Z,9.03
2023-02-24T17:32:23.950Z,6.73
2023-02-24T17:37:28.182Z,4.30
2023-02-24T17:42:36.855Z,4.60
2023-02-24T17:47:43.765Z,6.00
2023-02-24T17:52:48.284Z,3.83
2023-02-24T17:57:53.882Z,3.23
2023-02-24T18:03:00.169Z,2.67
2023-02-24T18:08:05.283Z,2.60
2023-02-24T18:13:09.807Z,3.47
2023-02-24T18:18:17.004Z,4.03
2023-02-24T19:55:20.453Z,5.03
2023-02-24T23:53:22.982Z,3.57
2023-02-24T23:59:01.465Z,4.13
